sensor_id;sensor_type;location;lat;lon;timestamp;P1;durP1;ratioP1;P2;durP2;ratioP2
10888;SDS011;5497;51.388;6.780;2023-02-28T00:00:33;14.43;;;6.70;;
10888;SDS011;5497;51.388;6.780;2023-02-28T00:03:02;18.40;;;7.50;;
10888;SDS011;5497;51.388;6.780;2023-02-28T00:08:11;18.20;;;7.53;;
10888;SDS011;5497;51.388;6.780;2023-02-28T00:10:38;16.57;;;7.07;;
10888;SDS011;5497;51.388;6.780;2023-02-28T00:13:05;15.57;;;6.77;;
10888;SDS011;5497;51.388;6.780;2023-02-28T00:15:32;18.33;;;7.30;;
10888;SDS011;5497;51.388;6.780;2023-02-28T00:18:01;20.40;;;7.57;;
10888;SDS011;5497;51.388;6.780;2023-02-28T00:20:28;18.77;;;8.10;;
10888;SDS011;5497;51.388;6.780;2023-02-28T00:22:59;17.73;;;7.43;;
10888;SDS011;5497;51.388;6.780;2023-02-28T00:25:26;19.43;;;7.73;;
10888;SDS011;5497;51.388;6.780;2023-02-28T00:27:52;19.70;;;7.70;;
10888;SDS011;5497;51.388;6.780;2023-02-28T00:30:20;20.50;;;7.97;;
10888;SDS011;5497;51.388;6.780;2023-02-28T00:32:48;20.23;;;8.33;;
10888;SDS011;5497;51.388;6.780;2023-02-28T00:35:17;20.30;;;7.73;;
10888;SDS011;5497;51.388;6.780;2023-02-28T00:37:44;22.07;;;8.03;;
10888;SDS011;5497;51.388;6.780;2023-02-28T00:40:11;19.03;;;7.53;;
10888;SDS011;5497;51.388;6.780;2023-02-28T00:42:38;15.30;;;6.90;;
10888;SDS011;5497;51.388;6.780;2023-02-28T00:45:06;19.47;;;7.97;;
10888;SDS011;5497;51.388;6.780;2023-02-28T00:47:36;16.07;;;7.27;;
10888;SDS011;5497;51.388;6.780;2023-02-28T00:50:04;21.77;;;8.37;;
10888;SDS011;5497;51.388;6.780;2023-02-28T00:52:33;18.33;;;7.87;;
10888;SDS011;5497;51.388;6.780;2023-02-28T00:55:00;20.03;;;8.07;;
10888;SDS011;5497;51.388;6.780;2023-02-28T00:57:27;12.90;;;6.60;;
10888;SDS011;5497;51.388;6.780;2023-02-28T00:59:54;16.80;;;7.53;;
10888;SDS011;5497;51.388;6.780;2023-02-28T01:02:20;17.53;;;7.77;;
10888;SDS011;5497;51.388;6.780;2023-02-28T01:04:51;16.00;;;7.50;;
10888;SDS011;5497;51.388;6.780;2023-02-28T01:07:18;19.37;;;8.20;;
10888;SDS011;5497;51.388;6.780;2023-02-28T01:09:47;16.27;;;7.23;;
10888;SDS011;5497;51.388;6.780;2023-02-28T01:12:14;21.40;;;8.40;;
10888;SDS011;5497;51.388;6.780;2023-02-28T01:14:42;17.30;;;7.80;;
10888;SDS011;5497;51.388;6.780;2023-02-28T01:17:09;18.30;;;7.00;;
10888;SDS011;5497;51.388;6.780;2023-02-28T01:19:35;22.07;;;8.00;;
10888;SDS011;5497;51.388;6.780;2023-02-28T01:22:03;20.17;;;7.63;;
10888;SDS011;5497;51.388;6.780;2023-02-28T01:24:31;16.83;;;7.07;;
10888;SDS011;5497;51.388;6.780;2023-02-28T01:27:00;19.17;;;8.30;;
10888;SDS011;5497;51.388;6.780;2023-02-28T01:29:27;18.63;;;7.03;;
10888;SDS011;5497;51.388;6.780;2023-02-28T01:31:54;21.00;;;7.30;;
10888;SDS011;5497;51.388;6.780;2023-02-28T01:34:22;17.60;;;8.03;;
10888;SDS011;5497;51.388;6.780;2023-02-28T01:36:50;15.70;;;7.20;;
10888;SDS011;5497;51.388;6.780;2023-02-28T01:39:18;14.73;;;7.30;;
10888;SDS011;5497;51.388;6.780;2023-02-28T01:41:45;14.03;;;6.63;;
10888;SDS011;5497;51.388;6.780;2023-02-28T01:47:17;15.17;;;7.23;;
10888;SDS011;5497;51.388;6.780;2023-02-28T01:49:44;15.67;;;6.87;;
10888;SDS011;5497;51.388;6.780;2023-02-28T01:52:11;13.27;;;7.00;;
10888;SDS011;5497;51.388;6.780;2023-02-28T01:54:43;15.13;;;6.53;;
10888;SDS011;5497;51.388;6.780;2023-02-28T01:57:17;18.57;;;7.23;;
10888;SDS011;5497;51.388;6.780;2023-02-28T01:59:49;14.30;;;7.10;;
10888;SDS011;5497;51.388;6.780;2023-02-28T02:02:21;13.87;;;7.10;;
10888;SDS011;5497;51.388;6.780;2023-02-28T02:04:51;15.47;;;7.10;;
10888;SDS011;5497;51.388;6.780;2023-02-28T02:07:21;15.87;;;7.30;;
10888;SDS011;5497;51.388;6.780;2023-02-28T02:09:49;11.57;;;6.40;;
10888;SDS011;5497;51.388;6.780;2023-02-28T02:12:20;14.77;;;7.07;;
10888;SDS011;5497;51.388;6.780;2023-02-28T02:14:57;13.53;;;6.23;;
10888;SDS011;5497;51.388;6.780;2023-02-28T02:17:32;16.20;;;7.20;;
10888;SDS011;5497;51.388;6.780;2023-02-28T02:20:16;14.50;;;6.53;;
10888;SDS011;5497;51.388;6.780;2023-02-28T02:23:30;16.87;;;7.20;;
10888;SDS011;5497;51.388;6.780;2023-02-28T02:26:17;18.97;;;7.27;;
10888;SDS011;5497;51.388;6.780;2023-02-28T02:29:11;16.70;;;7.03;;
10888;SDS011;5497;51.388;6.780;2023-02-28T02:32:10;16.47;;;7.17;;
10888;SDS011;5497;51.388;6.780;2023-02-28T02:34:54;17.77;;;7.07;;
10888;SDS011;5497;51.388;6.780;2023-02-28T02:37:27;27.13;;;8.13;;
10888;SDS011;5497;51.388;6.780;2023-02-28T02:40:03;16.83;;;7.57;;
10888;SDS011;5497;51.388;6.780;2023-02-28T02:42:38;15.70;;;6.87;;
10888;SDS011;5497;51.388;6.780;2023-02-28T02:45:11;14.50;;;6.97;;
10888;SDS011;5497;51.388;6.780;2023-02-28T02:47:42;17.33;;;6.93;;
10888;SDS011;5497;51.388;6.780;2023-02-28T02:50:14;15.87;;;7.17;;
10888;SDS011;5497;51.388;6.780;2023-02-28T02:52:46;16.37;;;6.73;;
10888;SDS011;5497;51.388;6.780;2023-02-28T02:55:17;14.27;;;6.97;;
10888;SDS011;5497;51.388;6.780;2023-02-28T02:57:47;13.60;;;6.70;;
10888;SDS011;5497;51.388;6.780;2023-02-28T03:00:18;14.40;;;5.83;;
10888;SDS011;5497;51.388;6.780;2023-02-28T03:02:49;12.70;;;6.23;;
10888;SDS011;5497;51.388;6.780;2023-02-28T03:05:23;16.10;;;6.47;;
10888;SDS011;5497;51.388;6.780;2023-02-28T03:07:52;14.17;;;6.33;;
10888;SDS011;5497;51.388;6.780;2023-02-28T03:10:30;17.97;;;6.67;;
10888;SDS011;5497;51.388;6.780;2023-02-28T03:16:05;16.60;;;6.53;;
10888;SDS011;5497;51.388;6.780;2023-02-28T03:18:53;12.30;;;6.57;;
10888;SDS011;5497;51.388;6.780;2023-02-28T03:21:34;11.30;;;6.03;;
10888;SDS011;5497;51.388;6.780;2023-02-28T03:24:06;12.53;;;6.20;;
10888;SDS011;5497;51.388;6.780;2023-02-28T03:26:38;15.53;;;6.70;;
10888;SDS011;5497;51.388;6.780;2023-02-28T03:29:09;14.50;;;6.27;;
10888;SDS011;5497;51.388;6.780;2023-02-28T03:31:43;14.83;;;6.63;;
10888;SDS011;5497;51.388;6.780;2023-02-28T03:34:15;13.57;;;6.53;;
10888;SDS011;5497;51.388;6.780;2023-02-28T03:36:49;15.40;;;6.50;;
10888;SDS011;5497;51.388;6.780;2023-02-28T03:39:22;15.40;;;6.40;;
10888;SDS011;5497;51.388;6.780;2023-02-28T03:41:56;14.97;;;6.93;;
10888;SDS011;5497;51.388;6.780;2023-02-28T03:44:25;12.97;;;5.83;;
10888;SDS011;5497;51.388;6.780;2023-02-28T03:46:57;19.57;;;6.93;;
10888;SDS011;5497;51.388;6.780;2023-02-28T03:49:30;12.83;;;6.17;;
10888;SDS011;5497;51.388;6.780;2023-02-28T03:52:02;14.67;;;6.60;;
10888;SDS011;5497;51.388;6.780;2023-02-28T03:54:36;22.20;;;7.43;;
10888;SDS011;5497;51.388;6.780;2023-02-28T03:57:10;13.67;;;6.20;;
10888;SDS011;5497;51.388;6.780;2023-02-28T03:59:42;12.77;;;6.20;;
10888;SDS011;5497;51.388;6.780;2023-02-28T04:02:13;11.53;;;5.83;;
10888;SDS011;5497;51.388;6.780;2023-02-28T04:04:40;12.33;;;5.77;;
10888;SDS011;5497;51.388;6.780;2023-02-28T04:07:11;12.90;;;6.57;;
10888;SDS011;5497;51.388;6.780;2023-02-28T04:09:38;14.80;;;5.50;;
10888;SDS011;5497;51.388;6.780;2023-02-28T04:12:06;12.47;;;5.90;;
10888;SDS011;5497;51.388;6.780;2023-02-28T04:14:33;15.23;;;6.50;;
10888;SDS011;5497;51.388;6.780;2023-02-28T04:17:00;14.50;;;5.80;;
10888;SDS011;5497;51.388;6.780;2023-02-28T04:19:27;15.20;;;5.77;;
10888;SDS011;5497;51.388;6.780;2023-02-28T04:21:54;12.87;;;5.93;;
10888;SDS011;5497;51.388;6.780;2023-02-28T04:24:23;16.30;;;6.57;;
10888;SDS011;5497;51.388;6.780;2023-02-28T04:26:53;17.03;;;5.97;;
10888;SDS011;5497;51.388;6.780;2023-02-28T04:29:22;13.83;;;6.17;;
10888;SDS011;5497;51.388;6.780;2023-02-28T04:31:50;17.87;;;6.43;;
10888;SDS011;5497;51.388;6.780;2023-02-28T04:34:18;14.30;;;6.10;;
10888;SDS011;5497;51.388;6.780;2023-02-28T04:36:46;14.07;;;5.77;;
10888;SDS011;5497;51.388;6.780;2023-02-28T04:39:14;10.60;;;5.50;;
10888;SDS011;5497;51.388;6.780;2023-02-28T04:41:44;15.90;;;6.17;;
10888;SDS011;5497;51.388;6.780;2023-02-28T04:44:12;17.73;;;6.50;;
10888;SDS011;5497;51.388;6.780;2023-02-28T04:46:39;14.17;;;5.93;;
10888;SDS011;5497;51.388;6.780;2023-02-28T04:49:06;13.60;;;5.83;;
10888;SDS011;5497;51.388;6.780;2023-02-28T04:51:34;10.83;;;5.70;;
10888;SDS011;5497;51.388;6.780;2023-02-28T04:54:01;13.20;;;6.03;;
10888;SDS011;5497;51.388;6.780;2023-02-28T04:56:28;14.73;;;5.87;;
10888;SDS011;5497;51.388;6.780;2023-02-28T04:58:56;19.40;;;6.00;;
10888;SDS011;5497;51.388;6.780;2023-02-28T05:01:24;12.27;;;5.97;;
10888;SDS011;5497;51.388;6.780;2023-02-28T05:03:53;13.50;;;6.30;;
10888;SDS011;5497;51.388;6.780;2023-02-28T05:06:21;16.30;;;6.23;;
10888;SDS011;5497;51.388;6.780;2023-02-28T05:08:49;14.67;;;6.40;;
10888;SDS011;5497;51.388;6.780;2023-02-28T05:11:17;14.17;;;6.23;;
10888;SDS011;5497;51.388;6.780;2023-02-28T05:13:46;19.47;;;6.50;;
10888;SDS011;5497;51.388;6.780;2023-02-28T05:16:14;13.30;;;6.03;;
10888;SDS011;5497;51.388;6.780;2023-02-28T05:18:42;15.33;;;5.83;;
10888;SDS011;5497;51.388;6.780;2023-02-28T05:21:19;16.83;;;6.80;;
10888;SDS011;5497;51.388;6.780;2023-02-28T05:23:53;15.80;;;5.93;;
10888;SDS011;5497;51.388;6.780;2023-02-28T05:26:21;14.23;;;6.70;;
10888;SDS011;5497;51.388;6.780;2023-02-28T05:28:48;14.63;;;6.33;;
10888;SDS011;5497;51.388;6.780;2023-02-28T05:31:16;14.83;;;6.53;;
10888;SDS011;5497;51.388;6.780;2023-02-28T05:33:43;18.87;;;6.83;;
10888;SDS011;5497;51.388;6.780;2023-02-28T05:36:10;15.60;;;6.27;;
10888;SDS011;5497;51.388;6.780;2023-02-28T05:38:37;19.80;;;7.23;;
10888;SDS011;5497;51.388;6.780;2023-02-28T05:41:05;15.47;;;6.53;;
10888;SDS011;5497;51.388;6.780;2023-02-28T05:43:33;15.60;;;6.67;;
10888;SDS011;5497;51.388;6.780;2023-02-28T05:46:01;9.77;;;5.63;;
10888;SDS011;5497;51.388;6.780;2023-02-28T05:48:30;10.63;;;5.60;;
10888;SDS011;5497;51.388;6.780;2023-02-28T05:50:58;15.83;;;6.77;;
10888;SDS011;5497;51.388;6.780;2023-02-28T05:53:25;14.07;;;6.10;;
10888;SDS011;5497;51.388;6.780;2023-02-28T05:55:52;15.17;;;6.30;;
10888;SDS011;5497;51.388;6.780;2023-02-28T05:58:19;13.97;;;6.37;;
10888;SDS011;5497;51.388;6.780;2023-02-28T06:00:47;13.20;;;6.27;;
10888;SDS011;5497;51.388;6.780;2023-02-28T06:03:14;16.70;;;6.67;;
10888;SDS011;5497;51.388;6.780;2023-02-28T06:05:42;12.50;;;6.50;;
10888;SDS011;5497;51.388;6.780;2023-02-28T06:08:09;12.47;;;6.20;;
10888;SDS011;5497;51.388;6.780;2023-02-28T06:10:36;13.30;;;6.30;;
10888;SDS011;5497;51.388;6.780;2023-02-28T06:13:05;14.77;;;6.47;;
10888;SDS011;5497;51.388;6.780;2023-02-28T06:15:32;17.90;;;6.80;;
10888;SDS011;5497;51.388;6.780;2023-02-28T06:17:59;13.37;;;5.67;;
10888;SDS011;5497;51.388;6.780;2023-02-28T06:20:27;12.03;;;5.40;;
10888;SDS011;5497;51.388;6.780;2023-02-28T06:22:55;14.83;;;6.13;;
10888;SDS011;5497;51.388;6.780;2023-02-28T06:25:23;11.27;;;5.47;;
10888;SDS011;5497;51.388;6.780;2023-02-28T06:27:51;14.70;;;6.07;;
10888;SDS011;5497;51.388;6.780;2023-02-28T06:30:18;12.03;;;6.20;;
10888;SDS011;5497;51.388;6.780;2023-02-28T06:32:52;15.33;;;5.70;;
10888;SDS011;5497;51.388;6.780;2023-02-28T06:35:19;13.30;;;5.90;;
10888;SDS011;5497;51.388;6.780;2023-02-28T06:37:46;13.80;;;5.43;;
10888;SDS011;5497;51.388;6.780;2023-02-28T06:40:15;18.20;;;7.07;;
10888;SDS011;5497;51.388;6.780;2023-02-28T06:42:42;13.93;;;7.13;;
10888;SDS011;5497;51.388;6.780;2023-02-28T06:45:09;15.93;;;7.07;;
10888;SDS011;5497;51.388;6.780;2023-02-28T06:47:37;14.13;;;6.03;;
10888;SDS011;5497;51.388;6.780;2023-02-28T06:50:06;12.60;;;6.50;;
10888;SDS011;5497;51.388;6.780;2023-02-28T06:52:34;16.60;;;6.80;;
10888;SDS011;5497;51.388;6.780;2023-02-28T06:55:02;15.93;;;7.57;;
10888;SDS011;5497;51.388;6.780;2023-02-28T06:57:32;17.10;;;6.83;;
10888;SDS011;5497;51.388;6.780;2023-02-28T07:00:01;10.47;;;5.70;;
10888;SDS011;5497;51.388;6.780;2023-02-28T07:02:32;10.60;;;5.30;;
10888;SDS011;5497;51.388;6.780;2023-02-28T07:05:00;10.57;;;4.93;;
10888;SDS011;5497;51.388;6.780;2023-02-28T07:07:27;12.30;;;4.90;;
10888;SDS011;5497;51.388;6.780;2023-02-28T07:09:54;9.83;;;4.60;;
10888;SDS011;5497;51.388;6.780;2023-02-28T07:12:21;10.27;;;4.20;;
10888;SDS011;5497;51.388;6.780;2023-02-28T07:14:50;10.37;;;4.13;;
10888;SDS011;5497;51.388;6.780;2023-02-28T07:17:16;11.60;;;3.87;;
10888;SDS011;5497;51.388;6.780;2023-02-28T07:19:43;10.03;;;3.87;;
10888;SDS011;5497;51.388;6.780;2023-02-28T07:22:10;8.53;;;3.90;;
10888;SDS011;5497;51.388;6.780;2023-02-28T07:24:37;9.60;;;3.87;;
10888;SDS011;5497;51.388;6.780;2023-02-28T07:27:04;7.67;;;3.50;;
10888;SDS011;5497;51.388;6.780;2023-02-28T07:29:31;7.33;;;3.30;;
10888;SDS011;5497;51.388;6.780;2023-02-28T07:32:00;8.00;;;3.70;;
10888;SDS011;5497;51.388;6.780;2023-02-28T07:34:27;5.87;;;3.33;;
10888;SDS011;5497;51.388;6.780;2023-02-28T07:36:54;9.23;;;3.73;;
10888;SDS011;5497;51.388;6.780;2023-02-28T07:39:21;7.33;;;3.27;;
10888;SDS011;5497;51.388;6.780;2023-02-28T07:41:48;5.33;;;3.13;;
10888;SDS011;5497;51.388;6.780;2023-02-28T07:44:15;7.13;;;3.60;;
10888;SDS011;5497;51.388;6.780;2023-02-28T07:46:42;7.17;;;3.33;;
10888;SDS011;5497;51.388;6.780;2023-02-28T07:49:11;7.73;;;3.33;;
10888;SDS011;5497;51.388;6.780;2023-02-28T07:51:38;8.47;;;3.50;;
10888;SDS011;5497;51.388;6.780;2023-02-28T07:54:04;8.17;;;3.23;;
10888;SDS011;5497;51.388;6.780;2023-02-28T07:56:31;9.13;;;4.00;;
10888;SDS011;5497;51.388;6.780;2023-02-28T07:58:59;9.03;;;3.83;;
10888;SDS011;5497;51.388;6.780;2023-02-28T08:01:26;6.37;;;3.17;;
10888;SDS011;5497;51.388;6.780;2023-02-28T08:03:53;12.70;;;4.23;;
10888;SDS011;5497;51.388;6.780;2023-02-28T08:06:24;7.10;;;3.70;;
10888;SDS011;5497;51.388;6.780;2023-02-28T08:08:52;6.30;;;3.30;;
10888;SDS011;5497;51.388;6.780;2023-02-28T08:11:21;7.50;;;3.30;;
10888;SDS011;5497;51.388;6.780;2023-02-28T08:13:48;7.87;;;3.80;;
10888;SDS011;5497;51.388;6.780;2023-02-28T08:16:15;6.30;;;3.10;;
10888;SDS011;5497;51.388;6.780;2023-02-28T08:18:47;6.27;;;3.30;;
10888;SDS011;5497;51.388;6.780;2023-02-28T08:21:16;7.77;;;3.67;;
10888;SDS011;5497;51.388;6.780;2023-02-28T08:23:45;13.40;;;3.53;;
10888;SDS011;5497;51.388;6.780;2023-02-28T08:26:13;7.03;;;3.67;;
10888;SDS011;5497;51.388;6.780;2023-02-28T08:28:40;8.43;;;3.37;;
10888;SDS011;5497;51.388;6.780;2023-02-28T08:31:07;9.93;;;4.47;;
10888;SDS011;5497;51.388;6.780;2023-02-28T08:33:35;7.03;;;3.43;;
10888;SDS011;5497;51.388;6.780;2023-02-28T08:36:04;7.80;;;3.60;;
10888;SDS011;5497;51.388;6.780;2023-02-28T08:38:32;8.33;;;3.63;;
10888;SDS011;5497;51.388;6.780;2023-02-28T08:41:01;7.20;;;3.23;;
10888;SDS011;5497;51.388;6.780;2023-02-28T08:43:31;5.07;;;2.93;;
10888;SDS011;5497;51.388;6.780;2023-02-28T08:45:58;5.67;;;3.17;;
10888;SDS011;5497;51.388;6.780;2023-02-28T08:48:26;4.67;;;2.50;;
10888;SDS011;5497;51.388;6.780;2023-02-28T08:50:54;6.43;;;3.20;;
10888;SDS011;5497;51.388;6.780;2023-02-28T08:53:22;5.37;;;2.70;;
10888;SDS011;5497;51.388;6.780;2023-02-28T08:55:57;3.80;;;1.83;;
10888;SDS011;5497;51.388;6.780;2023-02-28T08:58:26;8.47;;;3.60;;
10888;SDS011;5497;51.388;6.780;2023-02-28T09:00:53;9.33;;;3.37;;
10888;SDS011;5497;51.388;6.780;2023-02-28T09:03:23;6.53;;;3.07;;
10888;SDS011;5497;51.388;6.780;2023-02-28T09:05:53;6.30;;;3.30;;
10888;SDS011;5497;51.388;6.780;2023-02-28T09:08:27;10.63;;;3.70;;
10888;SDS011;5497;51.388;6.780;2023-02-28T09:10:59;10.57;;;3.37;;
10888;SDS011;5497;51.388;6.780;2023-02-28T09:13:33;6.40;;;3.13;;
10888;SDS011;5497;51.388;6.780;2023-02-28T09:16:11;5.67;;;3.07;;
10888;SDS011;5497;51.388;6.780;2023-02-28T09:18:43;10.13;;;3.47;;
10888;SDS011;5497;51.388;6.780;2023-02-28T09:21:19;7.93;;;3.30;;
10888;SDS011;5497;51.388;6.780;2023-02-28T09:23:47;29.27;;;4.70;;
10888;SDS011;5497;51.388;6.780;2023-02-28T09:26:15;8.17;;;3.53;;
10888;SDS011;5497;51.388;6.780;2023-02-28T09:28:45;11.63;;;3.53;;
10888;SDS011;5497;51.388;6.780;2023-02-28T09:31:13;12.93;;;4.07;;
10888;SDS011;5497;51.388;6.780;2023-02-28T09:33:41;7.20;;;3.37;;
10888;SDS011;5497;51.388;6.780;2023-02-28T09:36:09;8.00;;;3.37;;
10888;SDS011;5497;51.388;6.780;2023-02-28T09:38:37;7.47;;;3.43;;
10888;SDS011;5497;51.388;6.780;2023-02-28T09:41:10;7.77;;;3.20;;
10888;SDS011;5497;51.388;6.780;2023-02-28T09:43:40;7.63;;;3.20;;
10888;SDS011;5497;51.388;6.780;2023-02-28T09:46:17;8.37;;;3.53;;
10888;SDS011;5497;51.388;6.780;2023-02-28T09:48:54;8.60;;;3.07;;
10888;SDS011;5497;51.388;6.780;2023-02-28T09:51:27;5.83;;;2.87;;
10888;SDS011;5497;51.388;6.780;2023-02-28T09:54:02;5.73;;;2.83;;
10888;SDS011;5497;51.388;6.780;2023-02-28T09:56:31;8.83;;;3.07;;
10888;SDS011;5497;51.388;6.780;2023-02-28T09:59:02;9.73;;;3.40;;
10888;SDS011;5497;51.388;6.780;2023-02-28T10:01:39;9.50;;;3.23;;
10888;SDS011;5497;51.388;6.780;2023-02-28T10:04:16;6.37;;;3.30;;
10888;SDS011;5497;51.388;6.780;2023-02-28T10:06:52;9.10;;;3.40;;
10888;SDS011;5497;51.388;6.780;2023-02-28T10:09:21;7.17;;;3.10;;
10888;SDS011;5497;51.388;6.780;2023-02-28T10:11:51;8.20;;;3.40;;
10888;SDS011;5497;51.388;6.780;2023-02-28T10:14:21;6.03;;;3.03;;
10888;SDS011;5497;51.388;6.780;2023-02-28T10:16:52;10.33;;;3.63;;
10888;SDS011;5497;51.388;6.780;2023-02-28T10:19:22;5.97;;;2.83;;
10888;SDS011;5497;51.388;6.780;2023-02-28T10:21:59;7.53;;;3.10;;
10888;SDS011;5497;51.388;6.780;2023-02-28T10:24:28;7.33;;;3.17;;
10888;SDS011;5497;51.388;6.780;2023-02-28T10:27:01;8.13;;;3.40;;
10888;SDS011;5497;51.388;6.780;2023-02-28T10:29:40;8.33;;;3.10;;
10888;SDS011;5497;51.388;6.780;2023-02-28T10:32:12;8.63;;;3.33;;
10888;SDS011;5497;51.388;6.780;2023-02-28T10:34:42;5.00;;;2.47;;
10888;SDS011;5497;51.388;6.780;2023-02-28T10:37:10;6.73;;;3.03;;
10888;SDS011;5497;51.388;6.780;2023-02-28T10:39:41;8.13;;;3.60;;
10888;SDS011;5497;51.388;6.780;2023-02-28T10:42:19;8.53;;;2.93;;
10888;SDS011;5497;51.388;6.780;2023-02-28T10:45:02;7.13;;;3.20;;
10888;SDS011;5497;51.388;6.780;2023-02-28T10:47:34;5.27;;;2.47;;
10888;SDS011;5497;51.388;6.780;2023-02-28T10:50:04;45.93;;;30.17;;
10888;SDS011;5497;51.388;6.780;2023-02-28T10:52:36;13.67;;;6.93;;
10888;SDS011;5497;51.388;6.780;2023-02-28T10:55:15;11.93;;;5.60;;
10888;SDS011;5497;51.388;6.780;2023-02-28T10:57:47;9.70;;;5.27;;
10888;SDS011;5497;51.388;6.780;2023-02-28T11:00:16;26.90;;;12.23;;
10888;SDS011;5497;51.388;6.780;2023-02-28T11:02:46;6.93;;;3.10;;
10888;SDS011;5497;51.388;6.780;2023-02-28T11:05:27;8.20;;;3.17;;
10888;SDS011;5497;51.388;6.780;2023-02-28T11:07:57;6.53;;;2.90;;
10888;SDS011;5497;51.388;6.780;2023-02-28T11:10:30;6.70;;;2.90;;
10888;SDS011;5497;51.388;6.780;2023-02-28T11:13:00;8.73;;;3.10;;
10888;SDS011;5497;51.388;6.780;2023-02-28T11:15:32;6.47;;;3.10;;
10888;SDS011;5497;51.388;6.780;2023-02-28T11:18:01;6.30;;;3.33;;
10888;SDS011;5497;51.388;6.780;2023-02-28T11:20:41;9.17;;;4.07;;
10888;SDS011;5497;51.388;6.780;2023-02-28T11:23:14;10.27;;;3.50;;
10888;SDS011;5497;51.388;6.780;2023-02-28T11:25:46;5.77;;;2.83;;
10888;SDS011;5497;51.388;6.780;2023-02-28T11:28:27;7.93;;;3.07;;
10888;SDS011;5497;51.388;6.780;2023-02-28T11:31:15;10.20;;;3.80;;
10888;SDS011;5497;51.388;6.780;2023-02-28T11:33:46;8.40;;;3.07;;
10888;SDS011;5497;51.388;6.780;2023-02-28T11:36:17;6.37;;;3.10;;
10888;SDS011;5497;51.388;6.780;2023-02-28T11:38:46;5.30;;;2.70;;
10888;SDS011;5497;51.388;6.780;2023-02-28T11:44:18;9.10;;;3.00;;
10888;SDS011;5497;51.388;6.780;2023-02-28T11:46:57;7.10;;;3.17;;
10888;SDS011;5497;51.388;6.780;2023-02-28T11:49:34;10.27;;;3.50;;
10888;SDS011;5497;51.388;6.780;2023-02-28T11:52:13;13.43;;;4.03;;
10888;SDS011;5497;51.388;6.780;2023-02-28T11:54:50;8.60;;;3.20;;
10888;SDS011;5497;51.388;6.780;2023-02-28T11:57:32;9.30;;;3.30;;
10888;SDS011;5497;51.388;6.780;2023-02-28T12:00:15;9.77;;;4.13;;
10888;SDS011;5497;51.388;6.780;2023-02-28T12:02:59;6.83;;;3.20;;
10888;SDS011;5497;51.388;6.780;2023-02-28T12:05:41;9.57;;;3.40;;
10888;SDS011;5497;51.388;6.780;2023-02-28T12:08:17;6.93;;;3.50;;
10888;SDS011;5497;51.388;6.780;2023-02-28T12:10:54;9.30;;;3.37;;
10888;SDS011;5497;51.388;6.780;2023-02-28T12:13:29;9.00;;;3.23;;
10888;SDS011;5497;51.388;6.780;2023-02-28T12:19:12;8.23;;;3.30;;
10888;SDS011;5497;51.388;6.780;2023-02-28T12:21:51;7.23;;;3.10;;
10888;SDS011;5497;51.388;6.780;2023-02-28T12:27:40;5.40;;;2.80;;
10888;SDS011;5497;51.388;6.780;2023-02-28T12:30:13;9.97;;;3.10;;
10888;SDS011;5497;51.388;6.780;2023-02-28T12:32:45;6.67;;;3.20;;
10888;SDS011;5497;51.388;6.780;2023-02-28T12:35:16;6.53;;;3.13;;
10888;SDS011;5497;51.388;6.780;2023-02-28T12:37:56;5.23;;;2.73;;
10888;SDS011;5497;51.388;6.780;2023-02-28T12:40:41;4.97;;;2.60;;
10888;SDS011;5497;51.388;6.780;2023-02-28T12:43:12;6.40;;;2.90;;
10888;SDS011;5497;51.388;6.780;2023-02-28T12:45:41;6.47;;;3.33;;
10888;SDS011;5497;51.388;6.780;2023-02-28T12:48:19;7.83;;;3.17;;
10888;SDS011;5497;51.388;6.780;2023-02-28T12:50:50;7.43;;;3.60;;
10888;SDS011;5497;51.388;6.780;2023-02-28T12:53:21;7.13;;;3.13;;
10888;SDS011;5497;51.388;6.780;2023-02-28T12:55:56;7.23;;;3.07;;
10888;SDS011;5497;51.388;6.780;2023-02-28T12:58:35;7.93;;;3.47;;
10888;SDS011;5497;51.388;6.780;2023-02-28T13:01:13;6.73;;;3.03;;
10888;SDS011;5497;51.388;6.780;2023-02-28T13:04:20;6.73;;;2.80;;
10888;SDS011;5497;51.388;6.780;2023-02-28T13:10:13;5.53;;;2.63;;
10888;SDS011;5497;51.388;6.780;2023-02-28T13:12:47;6.70;;;3.13;;
10888;SDS011;5497;51.388;6.780;2023-02-28T13:15:17;6.77;;;2.73;;
10888;SDS011;5497;51.388;6.780;2023-02-28T13:17:48;7.67;;;3.17;;
10888;SDS011;5497;51.388;6.780;2023-02-28T13:20:17;8.43;;;3.33;;
10888;SDS011;5497;51.388;6.780;2023-02-28T13:22:46;7.80;;;3.63;;
10888;SDS011;5497;51.388;6.780;2023-02-28T13:31:33;6.43;;;2.93;;
10888;SDS011;5497;51.388;6.780;2023-02-28T13:34:39;7.73;;;3.63;;
10888;SDS011;5497;51.388;6.780;2023-02-28T13:40:06;7.87;;;3.10;;
10888;SDS011;5497;51.388;6.780;2023-02-28T13:42:48;7.53;;;3.30;;
10888;SDS011;5497;51.388;6.780;2023-02-28T13:45:23;7.33;;;3.33;;
10888;SDS011;5497;51.388;6.780;2023-02-28T13:47:53;7.87;;;3.60;;
10888;SDS011;5497;51.388;6.780;2023-02-28T13:50:27;7.37;;;3.37;;
10888;SDS011;5497;51.388;6.780;2023-02-28T13:53:07;7.33;;;3.47;;
10888;SDS011;5497;51.388;6.780;2023-02-28T13:56:06;8.47;;;3.70;;
10888;SDS011;5497;51.388;6.780;2023-02-28T13:58:48;7.60;;;3.30;;
10888;SDS011;5497;51.388;6.780;2023-02-28T14:07:23;7.67;;;3.20;;
10888;SDS011;5497;51.388;6.780;2023-02-28T14:09:57;7.53;;;3.17;;
10888;SDS011;5497;51.388;6.780;2023-02-28T14:15:41;5.00;;;2.77;;
10888;SDS011;5497;51.388;6.780;2023-02-28T14:18:22;8.33;;;4.00;;
10888;SDS011;5497;51.388;6.780;2023-02-28T14:20:54;6.83;;;3.17;;
10888;SDS011;5497;51.388;6.780;2023-02-28T14:23:30;7.10;;;3.27;;
10888;SDS011;5497;51.388;6.780;2023-02-28T14:26:07;8.10;;;3.20;;
10888;SDS011;5497;51.388;6.780;2023-02-28T14:28:56;6.33;;;3.20;;
10888;SDS011;5497;51.388;6.780;2023-02-28T14:31:41;5.87;;;2.80;;
10888;SDS011;5497;51.388;6.780;2023-02-28T14:34:21;8.50;;;3.57;;
10888;SDS011;5497;51.388;6.780;2023-02-28T14:37:00;9.13;;;3.70;;
10888;SDS011;5497;51.388;6.780;2023-02-28T14:39:29;6.70;;;3.27;;
10888;SDS011;5497;51.388;6.780;2023-02-28T14:41:57;7.70;;;3.50;;
10888;SDS011;5497;51.388;6.780;2023-02-28T14:44:28;6.83;;;3.50;;
10888;SDS011;5497;51.388;6.780;2023-02-28T14:46:56;9.70;;;3.67;;
10888;SDS011;5497;51.388;6.780;2023-02-28T14:49:26;8.77;;;3.77;;
10888;SDS011;5497;51.388;6.780;2023-02-28T14:54:54;6.37;;;2.83;;
10888;SDS011;5497;51.388;6.780;2023-02-28T14:57:27;3.87;;;2.23;;
10888;SDS011;5497;51.388;6.780;2023-02-28T14:59:59;6.97;;;2.77;;
10888;SDS011;5497;51.388;6.780;2023-02-28T15:02:35;6.87;;;3.33;;
10888;SDS011;5497;51.388;6.780;2023-02-28T15:05:10;15.93;;;5.60;;
10888;SDS011;5497;51.388;6.780;2023-02-28T15:07:59;7.17;;;3.10;;
10888;SDS011;5497;51.388;6.780;2023-02-28T15:10:28;9.13;;;4.00;;
10888;SDS011;5497;51.388;6.780;2023-02-28T15:12:56;7.83;;;3.87;;
10888;SDS011;5497;51.388;6.780;2023-02-28T15:15:25;7.30;;;3.83;;
10888;SDS011;5497;51.388;6.780;2023-02-28T15:18:00;8.87;;;3.97;;
10888;SDS011;5497;51.388;6.780;2023-02-28T15:20:30;7.97;;;3.70;;
10888;SDS011;5497;51.388;6.780;2023-02-28T15:22:59;8.10;;;3.90;;
10888;SDS011;5497;51.388;6.780;2023-02-28T15:25:27;5.73;;;2.90;;
10888;SDS011;5497;51.388;6.780;2023-02-28T15:27:55;9.00;;;3.70;;
10888;SDS011;5497;51.388;6.780;2023-02-28T15:30:24;8.17;;;3.60;;
10888;SDS011;5497;51.388;6.780;2023-02-28T15:33:02;9.63;;;4.10;;
10888;SDS011;5497;51.388;6.780;2023-02-28T15:35:33;9.97;;;4.07;;
10888;SDS011;5497;51.388;6.780;2023-02-28T15:38:03;9.40;;;4.23;;
10888;SDS011;5497;51.388;6.780;2023-02-28T15:40:41;9.43;;;3.87;;
10888;SDS011;5497;51.388;6.780;2023-02-28T15:43:13;8.43;;;3.90;;
10888;SDS011;5497;51.388;6.780;2023-02-28T15:45:41;7.07;;;3.50;;
10888;SDS011;5497;51.388;6.780;2023-02-28T15:48:14;10.13;;;4.13;;
10888;SDS011;5497;51.388;6.780;2023-02-28T15:50:43;7.17;;;3.13;;
10888;SDS011;5497;51.388;6.780;2023-02-28T15:53:14;8.90;;;3.83;;
10888;SDS011;5497;51.388;6.780;2023-02-28T15:55:43;9.73;;;4.10;;
10888;SDS011;5497;51.388;6.780;2023-02-28T15:58:11;13.80;;;4.60;;
10888;SDS011;5497;51.388;6.780;2023-02-28T16:00:39;8.63;;;3.80;;